< < Back
Terminal Aerodrome Forecast


Current Version              Previous Versions:   1  2  3  4  5  6  7  8  9  

Terminal Aerodrome Forecast

663
FTUS42 KJAX 212300
TAFGNV
TAF
KGNV 212320Z 2200/2224 VRB03KT P6SM VCTS SCT050CB BKN250
     FM220100 00000KT P6SM SCT100 BKN250
     FM221600 31006KT P6SM FEW050 SCT250=

Latest METAR

880
SAUS70 KWBC 220600 RRE
MTRGNV
METAR KGNV 220553Z 17003KT 9SM CLR 23/23 A3008 RMK AO2 SLP182 60006
T02330228 10261 20228 56012


USA.gov is the U.S. government's official web portal to all federal, state and local government web resources and services.